Estación Meteorológica Peña el Pijo (Robertgarden) [ 12/10/18 12:03:09 CET ]

Fecha Hora Presion(HPa) Temp (°C) Humedad % Rocio (°C) Viento ( m/s) Direccion Lluvia 1Hora(mm) Lluvia 24H(mm) LLuvia Total(mm)
2018-Oct-08 01:02:05 1009.000 10.3 66 4.2         0.00
2018-Oct-08 02:01:44 1009.100 8.4 71 3.4         0.00
2018-Oct-08 03:05:32 1008.800 7.2 75 3.0         0.00
2018-Oct-08 04:03:13 1008.000 6.2 76 2.3         0.00
2018-Oct-08 05:01:42 1007.600 5.5 77 1.8         0.00
2018-Oct-08 06:01:57 1007.200 4.9 78 1.3         0.00
2018-Oct-08 07:01:46 1007.100 4.4 80 1.3         0.00
2018-Oct-08 08:02:03 1007.400 4.1 81 1.2         0.00
2018-Oct-08 09:01:53 1007.600 4.2 82 1.4         0.00
2018-Oct-08 10:02:09 1007.700 10.9 79 7.4         0.00
2018-Oct-08 11:01:34 1007.800 16.8 56 7.9         0.00
2018-Oct-08 12:01:36 1007.600 20.3 45 7.9         0.00
2018-Oct-08 13:01:46 1007.000 21.0 41 7.2         0.00
2018-Oct-08 14:01:38 1006.600 20.8 42 7.4         0.00
2018-Oct-08 15:01:48 1005.800 22.9 37 7.3         0.00
2018-Oct-08 16:01:56 1005.500 24.3 31 6.1         0.00
2018-Oct-08 17:01:42 1005.500 23.4 38 8.2         0.00
2018-Oct-08 18:01:53 1005.500 21.6 36 5.8         0.00
2018-Oct-08 19:01:45 1005.800 17.1 53 7.7         0.00
2018-Oct-08 20:01:46 1006.300 14.9 64 7.9         0.00
2018-Oct-08 21:01:37 1006.400 13.2 70 7.9         0.00
2018-Oct-08 22:01:38 1006.500 12.1 75 7.8         0.00
2018-Oct-08 23:01:32 1006.700 12.1 76 8.0         0.00

Temperatura Máxima:24°    Temperatura Mínima:
Presión Máxima:1009.100 Hpa    Presión Mínima:1005.500 Hpa


Volver